Time;durP1;ratioP1;P1;durP2;ratioP2;P2;SDS_P1;SDS_P2;PMS_P1;PMS_P2;Temp;Humidity;BMP_temperature;BMP_pressure;BME280_temperature;BME280_humidity;BME280_pressure;Samples;Min_cycle;Max_cycle;Signal;HPM_P1;HPM_P2
2023/03/26 00:01:57;;;;;;;0.70;0.70;;;;;;;;;;5113207;28;20302;-83
2023/03/26 00:04:26;;;;;;;0.70;0.70;;;;;;;;;;5113558;28;20199;-83
2023/03/26 00:06:56;;;;;;;0.70;0.70;;;;;;;;;;5113302;28;20212;-83
2023/03/26 00:09:24;;;;;;;0.70;0.70;;;;;;;;;;5113223;28;20201;-83
2023/03/26 00:11:52;;;;;;;0.70;0.70;;;;;;;;;;5113226;28;20199;-83
2023/03/26 00:14:22;;;;;;;1.13;1.13;;;;;;;;;;5113387;28;20244;-83
2023/03/26 00:16:52;;;;;;;0.70;0.70;;;;;;;;;;5112256;28;20209;-83
2023/03/26 00:19:21;;;;;;;0.70;0.70;;;;;;;;;;5113155;28;20194;-83
2023/03/26 00:21:51;;;;;;;0.70;0.70;;;;;;;;;;5113268;28;20302;-83
2023/03/26 00:24:20;;;;;;;0.70;0.70;;;;;;;;;;5113481;28;20206;-83
2023/03/26 00:26:52;;;;;;;0.60;0.60;;;;;;;;;;5112639;28;20549;-82
2023/03/26 00:29:21;;;;;;;0.60;0.60;;;;;;;;;;5113141;28;20205;-83
2023/03/26 00:31:51;;;;;;;0.60;0.60;;;;;;;;;;5112844;28;20198;-83
2023/03/26 00:34:21;;;;;;;0.70;0.70;;;;;;;;;;5112837;28;20195;-83
2023/03/26 00:36:53;;;;;;;0.70;0.70;;;;;;;;;;5112962;28;20215;-83
2023/03/26 00:39:22;;;;;;;0.60;0.60;;;;;;;;;;5112912;28;20198;-83
2023/03/26 00:41:53;;;;;;;0.70;0.70;;;;;;;;;;5112799;28;20236;-83
2023/03/26 00:44:22;;;;;;;0.70;0.70;;;;;;;;;;5112850;28;20233;-83
2023/03/26 00:46:52;;;;;;;0.70;0.70;;;;;;;;;;5112616;28;20209;-82
2023/03/26 00:49:20;;;;;;;0.70;0.70;;;;;;;;;;5112235;28;20217;-83
2023/03/26 00:51:48;;;;;;;0.70;0.70;;;;;;;;;;5112864;28;20237;-83
2023/03/26 00:54:17;;;;;;;0.70;0.70;;;;;;;;;;5112545;28;20230;-83
2023/03/26 00:56:46;;;;;;;0.70;0.70;;;;;;;;;;5112801;28;20198;-83
2023/03/26 00:59:14;;;;;;;0.70;0.70;;;;;;;;;;5112745;28;20233;-83
2023/03/26 01:01:43;;;;;;;0.70;0.70;;;;;;;;;;5112543;28;20323;-83
2023/03/26 01:04:26;;;;;;;0.60;0.60;;;;;;;;;;5113134;28;20199;-83
2023/03/26 01:06:57;;;;;;;0.60;0.60;;;;;;;;;;5112719;28;20218;-83
2023/03/26 01:09:29;;;;;;;0.70;0.70;;;;;;;;;;5112503;28;20263;-82
2023/03/26 01:11:57;;;;;;;0.70;0.70;;;;;;;;;;5112400;28;20187;-83
2023/03/26 01:14:27;;;;;;;0.70;0.70;;;;;;;;;;5112686;28;20226;-82
2023/03/26 01:16:56;;;;;;;0.60;0.60;;;;;;;;;;5111982;28;20215;-82
2023/03/26 01:19:29;;;;;;;0.70;0.70;;;;;;;;;;5112697;28;20233;-82
2023/03/26 01:21:59;;;;;;;0.70;0.70;;;;;;;;;;5112207;28;20228;-83
2023/03/26 01:24:29;;;;;;;0.70;0.70;;;;;;;;;;5112310;28;20247;-83
2023/03/26 01:27:03;;;;;;;0.70;0.70;;;;;;;;;;5113385;28;20237;-83
2023/03/26 01:29:33;;;;;;;0.70;0.70;;;;;;;;;;5116469;28;20202;-83
2023/03/26 01:32:08;;;;;;;0.70;0.70;;;;;;;;;;5116023;28;20201;-83
2023/03/26 01:34:45;;;;;;;0.70;0.70;;;;;;;;;;5116141;28;20192;-83
2023/03/26 01:37:17;;;;;;;0.70;0.70;;;;;;;;;;5116404;28;20193;-83
2023/03/26 01:39:52;;;;;;;0.70;0.70;;;;;;;;;;5116254;28;20232;-83
2023/03/26 01:42:25;;;;;;;0.70;0.70;;;;;;;;;;5116398;28;20215;-83
2023/03/26 01:44:57;;;;;;;0.70;0.70;;;;;;;;;;5116124;28;20225;-83
2023/03/26 01:47:26;;;;;;;0.70;0.70;;;;;;;;;;5115668;28;20189;-83
2023/03/26 01:49:54;;;;;;;0.70;0.70;;;;;;;;;;5115973;28;20202;-83
2023/03/26 01:52:24;;;;;;;0.70;0.70;;;;;;;;;;5115640;28;20188;-83
2023/03/26 01:54:55;;;;;;;0.70;0.70;;;;;;;;;;5116144;28;20288;-83
2023/03/26 01:57:27;;;;;;;0.70;0.70;;;;;;;;;;5115718;28;20265;-83
2023/03/26 02:00:06;;;;;;;0.70;0.70;;;;;;;;;;5115830;28;20261;-83
2023/03/26 02:02:37;;;;;;;0.70;0.70;;;;;;;;;;5115733;28;20418;-83
2023/03/26 02:05:09;;;;;;;0.70;0.70;;;;;;;;;;5115881;28;20288;-83
2023/03/26 02:07:43;;;;;;;0.70;0.70;;;;;;;;;;5115605;28;20499;-83
2023/03/26 02:10:16;;;;;;;0.70;0.70;;;;;;;;;;5115667;28;20214;-83
2023/03/26 02:12:45;;;;;;;0.70;0.70;;;;;;;;;;5115304;28;20197;-83
2023/03/26 02:15:16;;;;;;;0.70;0.70;;;;;;;;;;5115389;28;20242;-83
2023/03/26 02:17:45;;;;;;;0.70;0.70;;;;;;;;;;5115343;28;20253;-83
2023/03/26 02:20:14;;;;;;;0.70;0.70;;;;;;;;;;5115356;28;20197;-83
2023/03/26 02:22:44;;;;;;;0.70;0.70;;;;;;;;;;5115264;28;20202;-83
2023/03/26 02:25:15;;;;;;;0.70;0.70;;;;;;;;;;5115457;28;20325;-83
2023/03/26 02:27:44;;;;;;;0.70;0.70;;;;;;;;;;5114914;28;20228;-83
2023/03/26 02:30:14;;;;;;;0.80;0.80;;;;;;;;;;5115465;28;20199;-83
2023/03/26 02:32:43;;;;;;;0.70;0.70;;;;;;;;;;5115215;28;20247;-83
2023/03/26 02:35:12;;;;;;;0.70;0.70;;;;;;;;;;5115297;28;20198;-83
2023/03/26 02:37:45;;;;;;;0.70;0.70;;;;;;;;;;5114618;28;20209;-83
2023/03/26 02:40:16;;;;;;;0.70;0.70;;;;;;;;;;5114475;28;20207;-82
2023/03/26 02:42:46;;;;;;;0.70;0.70;;;;;;;;;;5115192;28;20232;-83
2023/03/26 02:45:14;;;;;;;0.70;0.70;;;;;;;;;;5114788;28;20196;-83
2023/03/26 02:47:44;;;;;;;0.70;0.70;;;;;;;;;;5115138;28;20202;-83
2023/03/26 02:50:13;;;;;;;0.70;0.70;;;;;;;;;;5115411;28;20459;-82
2023/03/26 02:52:42;;;;;;;0.70;0.70;;;;;;;;;;5114265;28;20189;-82
2023/03/26 02:55:10;;;;;;;0.70;0.70;;;;;;;;;;5114517;28;20243;-82
2023/03/26 02:57:40;;;;;;;0.70;0.70;;;;;;;;;;5114738;28;20197;-83
2023/03/26 03:00:10;;;;;;;0.70;0.70;;;;;;;;;;5114171;28;20266;-83
2023/03/26 03:02:38;;;;;;;0.80;0.80;;;;;;;;;;5114359;28;20196;-83
2023/03/26 03:05:08;;;;;;;0.73;0.73;;;;;;;;;;5114095;27;20196;-83
2023/03/26 03:07:37;;;;;;;0.80;0.80;;;;;;;;;;5114398;28;20201;-82
2023/03/26 03:10:07;;;;;;;0.73;0.73;;;;;;;;;;5114623;28;20232;-82
2023/03/26 03:12:36;;;;;;;0.80;0.80;;;;;;;;;;5114224;28;20192;-81
2023/03/26 03:15:06;;;;;;;0.70;0.70;;;;;;;;;;5114240;28;20219;-83
2023/03/26 03:17:35;;;;;;;0.80;0.80;;;;;;;;;;5114181;28;20207;-82
2023/03/26 03:20:04;;;;;;;0.70;0.70;;;;;;;;;;5113816;28;20212;-82
2023/03/26 03:22:32;;;;;;;0.70;0.70;;;;;;;;;;5114403;28;20204;-82
2023/03/26 03:25:01;;;;;;;0.80;0.80;;;;;;;;;;5114042;28;20260;-82
2023/03/26 03:27:29;;;;;;;0.80;0.80;;;;;;;;;;5113560;28;20289;-82
2023/03/26 03:29:58;;;;;;;0.80;0.80;;;;;;;;;;5114066;28;20192;-82
2023/03/26 03:32:28;;;;;;;0.80;0.80;;;;;;;;;;5113900;28;20300;-82
2023/03/26 03:34:56;;;;;;;0.80;0.80;;;;;;;;;;5113989;28;20281;-82
2023/03/26 03:37:25;;;;;;;0.80;0.80;;;;;;;;;;5113635;28;20200;-82
2023/03/26 03:39:54;;;;;;;0.80;0.80;;;;;;;;;;5113957;28;20255;-82
2023/03/26 03:42:22;;;;;;;0.70;0.70;;;;;;;;;;5113669;28;20193;-82
2023/03/26 03:44:51;;;;;;;0.70;0.70;;;;;;;;;;5114057;28;20226;-82
2023/03/26 03:47:19;;;;;;;0.70;0.70;;;;;;;;;;5114035;28;20329;-82
2023/03/26 03:49:50;;;;;;;0.80;0.80;;;;;;;;;;5113309;28;20268;-82
2023/03/26 03:52:18;;;;;;;0.80;0.80;;;;;;;;;;5113877;28;20196;-82
2023/03/26 03:54:46;;;;;;;0.70;0.70;;;;;;;;;;5113557;28;20223;-82
2023/03/26 03:57:17;;;;;;;0.70;0.70;;;;;;;;;;5113473;28;20296;-82
2023/03/26 03:59:46;;;;;;;0.70;0.70;;;;;;;;;;5113780;28;20224;-82
2023/03/26 04:02:24;;;;;;;0.70;0.70;;;;;;;;;;5113482;28;20271;-82
2023/03/26 04:04:56;;;;;;;0.80;0.80;;;;;;;;;;5113321;28;20200;-82
2023/03/26 04:07:25;;;;;;;0.70;0.70;;;;;;;;;;5113576;28;20196;-82
2023/03/26 04:09:53;;;;;;;0.80;0.80;;;;;;;;;;5113518;28;20231;-82
2023/03/26 04:12:21;;;;;;;0.70;0.70;;;;;;;;;;5113140;28;20245;-83
2023/03/26 04:14:50;;;;;;;0.80;0.80;;;;;;;;;;5113367;28;20604;-82
2023/03/26 04:17:20;;;;;;;0.80;0.80;;;;;;;;;;5113284;28;20201;-82
2023/03/26 04:19:49;;;;;;;0.80;0.80;;;;;;;;;;5112682;28;20242;-82
2023/03/26 04:22:19;;;;;;;0.70;0.70;;;;;;;;;;5113479;28;20193;-82
2023/03/26 04:24:47;;;;;;;0.70;0.70;;;;;;;;;;5113035;28;20291;-82
2023/03/26 04:27:17;;;;;;;0.70;0.70;;;;;;;;;;5112574;28;20243;-82
2023/03/26 04:29:48;;;;;;;0.80;0.80;;;;;;;;;;5112889;28;20199;-82
2023/03/26 04:32:20;;;;;;;0.70;0.70;;;;;;;;;;5112806;28;20232;-82
2023/03/26 04:34:49;;;;;;;0.70;0.70;;;;;;;;;;5113186;28;20219;-82
2023/03/26 04:37:23;;;;;;;0.70;0.70;;;;;;;;;;5112580;28;20242;-82
2023/03/26 04:39:51;;;;;;;0.80;0.80;;;;;;;;;;5112997;28;20252;-81
2023/03/26 04:42:20;;;;;;;0.70;0.70;;;;;;;;;;5113143;28;20204;-81
2023/03/26 04:44:51;;;;;;;0.80;0.80;;;;;;;;;;5112867;28;20387;-81
2023/03/26 04:47:19;;;;;;;0.70;0.70;;;;;;;;;;5113226;28;20208;-81
2023/03/26 04:49:48;;;;;;;0.70;0.70;;;;;;;;;;5112484;28;20194;-81
2023/03/26 04:52:16;;;;;;;0.80;0.80;;;;;;;;;;5112971;28;20196;-81
2023/03/26 04:54:46;;;;;;;0.80;0.80;;;;;;;;;;5112774;28;20265;-81
2023/03/26 04:57:16;;;;;;;0.80;0.80;;;;;;;;;;5112840;28;20192;-81
2023/03/26 04:59:44;;;;;;;0.70;0.70;;;;;;;;;;5112399;28;20255;-81
2023/03/26 05:02:14;;;;;;;0.70;0.70;;;;;;;;;;5113952;28;20200;-81
2023/03/26 05:04:45;;;;;;;0.70;0.70;;;;;;;;;;5116909;28;20196;-81
2023/03/26 05:07:17;;;;;;;0.70;0.70;;;;;;;;;;5116896;28;20219;-81
2023/03/26 05:09:46;;;;;;;0.70;0.70;;;;;;;;;;5117164;28;20287;-81
2023/03/26 05:12:15;;;;;;;0.70;0.70;;;;;;;;;;5116660;28;20192;-81
2023/03/26 05:14:43;;;;;;;0.70;0.70;;;;;;;;;;5116962;27;20248;-81
2023/03/26 05:17:17;;;;;;;0.70;0.70;;;;;;;;;;5116859;28;20271;-81
2023/03/26 05:19:46;;;;;;;0.70;0.70;;;;;;;;;;5116844;28;20219;-81
2023/03/26 05:22:14;;;;;;;0.70;0.70;;;;;;;;;;5116785;28;20192;-81
2023/03/26 05:24:43;;;;;;;0.70;0.70;;;;;;;;;;5116904;28;20222;-81
2023/03/26 05:27:16;;;;;;;0.80;0.80;;;;;;;;;;5116335;28;20237;-81
2023/03/26 05:29:44;;;;;;;0.70;0.70;;;;;;;;;;5116293;28;20255;-81
2023/03/26 05:32:13;;;;;;;0.70;0.70;;;;;;;;;;5116443;28;20275;-81
2023/03/26 05:34:42;;;;;;;0.70;0.70;;;;;;;;;;5116282;28;20220;-81
2023/03/26 05:37:10;;;;;;;0.70;0.70;;;;;;;;;;5116769;28;20228;-81
2023/03/26 05:39:40;;;;;;;0.80;0.80;;;;;;;;;;5115990;28;20253;-81
2023/03/26 05:42:08;;;;;;;0.80;0.80;;;;;;;;;;5116636;28;20200;-80
2023/03/26 05:44:38;;;;;;;0.70;0.70;;;;;;;;;;5116408;28;20207;-80
2023/03/26 05:47:06;;;;;;;0.77;0.77;;;;;;;;;;5116253;28;20218;-80
2023/03/26 05:49:35;;;;;;;0.70;0.70;;;;;;;;;;5116387;28;20220;-80
2023/03/26 05:52:03;;;;;;;0.70;0.70;;;;;;;;;;5116114;28;20320;-80
2023/03/26 05:54:32;;;;;;;0.80;0.80;;;;;;;;;;5116285;28;20196;-80
2023/03/26 05:57:00;;;;;;;0.80;0.80;;;;;;;;;;5116040;28;20200;-80
2023/03/26 05:59:29;;;;;;;0.70;0.70;;;;;;;;;;5115860;28;20260;-80
2023/03/26 06:01:58;;;;;;;0.70;0.70;;;;;;;;;;5116064;28;20231;-80
2023/03/26 06:04:27;;;;;;;0.70;0.70;;;;;;;;;;5115397;28;20237;-80
2023/03/26 06:06:56;;;;;;;0.70;0.70;;;;;;;;;;5115827;28;20223;-80
2023/03/26 06:09:24;;;;;;;0.80;0.80;;;;;;;;;;5115842;28;20200;-80
2023/03/26 06:11:53;;;;;;;0.73;0.73;;;;;;;;;;5115666;28;20193;-80
2023/03/26 06:14:21;;;;;;;1.07;1.07;;;;;;;;;;5115563;28;20201;-80
2023/03/26 06:16:49;;;;;;;0.80;0.80;;;;;;;;;;5115667;28;20201;-80
2023/03/26 06:19:19;;;;;;;0.80;0.80;;;;;;;;;;5115530;28;20217;-80
2023/03/26 06:21:48;;;;;;;0.80;0.80;;;;;;;;;;5115364;28;20220;-80
2023/03/26 06:24:18;;;;;;;0.70;0.70;;;;;;;;;;5115889;28;20292;-80
2023/03/26 06:26:46;;;;;;;0.70;0.70;;;;;;;;;;5115545;28;20285;-80
2023/03/26 06:29:15;;;;;;;0.70;0.70;;;;;;;;;;5115210;28;20204;-80
2023/03/26 06:31:44;;;;;;;0.70;0.70;;;;;;;;;;5115161;28;20188;-81
2023/03/26 06:34:12;;;;;;;0.70;0.70;;;;;;;;;;5115575;28;20202;-81
2023/03/26 06:36:42;;;;;;;0.80;0.80;;;;;;;;;;5115270;28;20200;-81
2023/03/26 06:39:10;;;;;;;0.70;0.70;;;;;;;;;;5115303;28;20246;-81
2023/03/26 06:41:39;;;;;;;0.70;0.70;;;;;;;;;;5114861;28;20230;-81
2023/03/26 06:44:07;;;;;;;0.70;0.70;;;;;;;;;;5115005;28;20197;-81
2023/03/26 06:46:35;;;;;;;0.70;0.70;;;;;;;;;;5114807;28;20197;-81
2023/03/26 06:49:04;;;;;;;0.70;0.70;;;;;;;;;;5115080;28;20273;-80
2023/03/26 06:51:32;;;;;;;0.70;0.70;;;;;;;;;;5114607;28;20254;-80
2023/03/26 06:54:02;;;;;;;0.70;0.70;;;;;;;;;;5115119;28;20200;-80
2023/03/26 06:56:30;;;;;;;0.70;0.70;;;;;;;;;;5115066;28;20220;-80
2023/03/26 06:58:59;;;;;;;0.70;0.70;;;;;;;;;;5114470;28;20209;-80
2023/03/26 07:01:27;;;;;;;0.70;0.70;;;;;;;;;;5114952;28;20225;-80
2023/03/26 07:03:56;;;;;;;0.70;0.70;;;;;;;;;;5114706;28;20269;-80
2023/03/26 07:06:27;;;;;;;0.70;0.70;;;;;;;;;;5114677;28;20221;-80
2023/03/26 07:08:56;;;;;;;0.70;0.70;;;;;;;;;;5114683;27;20242;-80
2023/03/26 07:11:26;;;;;;;0.60;0.60;;;;;;;;;;5114519;28;20224;-80
2023/03/26 07:13:55;;;;;;;0.80;0.80;;;;;;;;;;5114358;28;20286;-80
2023/03/26 07:16:24;;;;;;;0.70;0.70;;;;;;;;;;5114024;28;20198;-80
2023/03/26 07:18:54;;;;;;;0.80;0.80;;;;;;;;;;5114482;28;20231;-80
2023/03/26 07:21:22;;;;;;;0.70;0.70;;;;;;;;;;5114428;28;20217;-80
2023/03/26 07:23:51;;;;;;;0.70;0.70;;;;;;;;;;5114046;28;20193;-80
2023/03/26 07:26:27;;;;;;;0.80;0.80;;;;;;;;;;5113956;28;20236;-80
2023/03/26 07:28:59;;;;;;;0.70;0.70;;;;;;;;;;5073495;28;20202;-80
2023/03/26 07:31:38;;;;;;;0.70;0.70;;;;;;;;;;5073454;28;20197;-80
2023/03/26 07:34:10;;;;;;;0.70;0.70;;;;;;;;;;5073459;28;20271;-80
2023/03/26 07:36:42;;;;;;;0.70;0.70;;;;;;;;;;5073256;28;20195;-80
2023/03/26 07:39:15;;;;;;;0.80;0.80;;;;;;;;;;5073586;28;20191;-80
2023/03/26 07:41:47;;;;;;;8.50;3.87;;;;;;;;;;5073393;28;20259;-80
2023/03/26 07:44:27;;;;;;;6.17;2.80;;;;;;;;;;5073277;28;20292;-80
2023/03/26 07:46:56;;;;;;;8.47;3.77;;;;;;;;;;5073347;28;20202;-80
2023/03/26 07:49:25;;;;;;;6.77;3.07;;;;;;;;;;5072858;28;20240;-80
2023/03/26 07:51:54;;;;;;;9.63;2.70;;;;;;;;;;5073118;28;20266;-80
2023/03/26 07:54:23;;;;;;;8.33;2.80;;;;;;;;;;5073001;28;20190;-80
2023/03/26 07:56:55;;;;;;;9.33;2.73;;;;;;;;;;5072831;28;20230;-80
2023/03/26 07:59:30;;;;;;;12.20;2.37;;;;;;;;;;5072981;28;20202;-80
2023/03/26 08:02:08;;;;;;;16.07;4.50;;;;;;;;;;5072666;28;20221;-81
2023/03/26 08:04:40;;;;;;;10.47;5.03;;;;;;;;;;5072626;28;20199;-81
2023/03/26 08:07:11;;;;;;;6.93;2.13;;;;;;;;;;5072864;28;20223;-81
2023/03/26 08:09:43;;;;;;;4.60;2.97;;;;;;;;;;5072924;28;20210;-81
2023/03/26 08:12:17;;;;;;;10.87;3.43;;;;;;;;;;5072843;28;20233;-81
2023/03/26 08:14:50;;;;;;;9.63;2.67;;;;;;;;;;5072774;28;20248;-81
2023/03/26 08:17:23;;;;;;;8.30;2.17;;;;;;;;;;5072767;28;20200;-81
2023/03/26 08:19:56;;;;;;;6.07;2.03;;;;;;;;;;5072563;28;20194;-81
2023/03/26 08:22:27;;;;;;;5.37;2.47;;;;;;;;;;5072581;28;20220;-81
2023/03/26 08:25:12;;;;;;;8.87;2.43;;;;;;;;;;5072416;28;20228;-81
2023/03/26 08:27:43;;;;;;;11.53;3.60;;;;;;;;;;5093374;28;20319;-81
2023/03/26 08:30:14;;;;;;;4.13;2.33;;;;;;;;;;5113012;28;20214;-80
2023/03/26 08:32:46;;;;;;;7.80;2.67;;;;;;;;;;5113231;28;20197;-80
2023/03/26 08:35:14;;;;;;;4.90;3.27;;;;;;;;;;5113116;28;20206;-80
2023/03/26 08:37:44;;;;;;;5.03;2.30;;;;;;;;;;5111836;28;20245;-83
2023/03/26 08:40:13;;;;;;;4.97;2.63;;;;;;;;;;5112767;28;20269;-82
2023/03/26 08:42:57;;;;;;;7.17;2.50;;;;;;;;;;5112731;28;20507;-82
2023/03/26 08:45:42;;;;;;;18.20;5.87;;;;;;;;;;5112796;28;20201;-82
2023/03/26 08:48:32;;;;;;;13.97;4.47;;;;;;;;;;5112250;28;20232;-82
2023/03/26 08:51:15;;;;;;;6.50;3.17;;;;;;;;;;5112554;28;20262;-82
2023/03/26 08:53:52;;;;;;;11.77;3.23;;;;;;;;;;5112795;28;20211;-82
2023/03/26 08:56:25;;;;;;;9.73;3.90;;;;;;;;;;5112768;28;20203;-82
2023/03/26 08:59:12;;;;;;;10.97;3.97;;;;;;;;;;5112716;28;20218;-82
2023/03/26 09:02:09;;;;;;;6.57;3.03;;;;;;;;;;5112636;28;20241;-82
2023/03/26 09:05:07;;;;;;;7.73;2.03;;;;;;;;;;5112303;28;20206;-82
2023/03/26 09:07:41;;;;;;;7.27;2.77;;;;;;;;;;5112488;28;20265;-82
2023/03/26 09:10:21;;;;;;;7.10;2.87;;;;;;;;;;5112413;28;20192;-82
2023/03/26 09:13:04;;;;;;;10.07;3.10;;;;;;;;;;5112259;28;20250;-82
2023/03/26 09:15:53;;;;;;;13.87;3.07;;;;;;;;;;5112515;28;20206;-82
2023/03/26 09:18:40;;;;;;;5.80;3.33;;;;;;;;;;5112657;28;20198;-82
2023/03/26 09:21:27;;;;;;;7.03;3.03;;;;;;;;;;5112373;28;20289;-82
2023/03/26 09:24:17;;;;;;;8.53;3.33;;;;;;;;;;5112587;28;20211;-82
2023/03/26 09:26:50;;;;;;;5.60;2.07;;;;;;;;;;5112502;28;20317;-82
2023/03/26 09:29:44;;;;;;;9.47;2.00;;;;;;;;;;5111961;28;20191;-82
2023/03/26 09:32:29;;;;;;;4.70;2.30;;;;;;;;;;5111943;28;20217;-82
2023/03/26 09:35:11;;;;;;;10.50;3.53;;;;;;;;;;5112417;28;20203;-82
2023/03/26 09:37:55;;;;;;;5.47;2.30;;;;;;;;;;5112183;28;20247;-82
2023/03/26 09:40:29;;;;;;;6.87;2.80;;;;;;;;;;5110944;28;20202;-82
2023/03/26 09:43:04;;;;;;;8.17;2.77;;;;;;;;;;5112646;28;20548;-82
2023/03/26 09:45:47;;;;;;;6.40;2.17;;;;;;;;;;5112348;28;20201;-82
2023/03/26 09:48:30;;;;;;;19.10;3.70;;;;;;;;;;5112024;28;20200;-82
2023/03/26 09:51:09;;;;;;;6.90;2.47;;;;;;;;;;5116342;28;20235;-82
2023/03/26 09:53:46;;;;;;;9.97;3.03;;;;;;;;;;5115738;28;20290;-82
2023/03/26 09:56:19;;;;;;;5.50;3.13;;;;;;;;;;5115965;28;20202;-82
2023/03/26 09:59:05;;;;;;;7.90;2.57;;;;;;;;;;5115897;27;20297;-82
2023/03/26 10:01:36;;;;;;;7.80;2.90;;;;;;;;;;5115883;28;20233;-82
2023/03/26 10:04:25;;;;;;;6.67;2.50;;;;;;;;;;5115500;28;20295;-82
2023/03/26 10:06:58;;;;;;;9.17;2.33;;;;;;;;;;5115591;28;20216;-82
2023/03/26 10:09:34;;;;;;;4.37;2.90;;;;;;;;;;5115501;28;20266;-82
2023/03/26 10:12:10;;;;;;;6.03;2.63;;;;;;;;;;5115538;28;20195;-82
2023/03/26 10:14:43;;;;;;;9.97;2.83;;;;;;;;;;5115478;27;20211;-82
2023/03/26 10:17:20;;;;;;;5.90;2.93;;;;;;;;;;5115738;28;20331;-82
2023/03/26 10:19:54;;;;;;;9.53;3.30;;;;;;;;;;5115418;28;20199;-82
2023/03/26 10:22:36;;;;;;;7.00;3.30;;;;;;;;;;5114906;28;20224;-82
2023/03/26 10:25:28;;;;;;;5.97;2.87;;;;;;;;;;5115236;28;20287;-83
2023/03/26 10:28:03;;;;;;;6.30;2.47;;;;;;;;;;5115295;28;20236;-82
2023/03/26 10:30:45;;;;;;;6.70;2.47;;;;;;;;;;5115477;28;20205;-82
2023/03/26 10:33:19;;;;;;;7.80;3.07;;;;;;;;;;5115378;28;20199;-82
2023/03/26 10:35:51;;;;;;;6.83;2.63;;;;;;;;;;5114652;28;20190;-82
2023/03/26 10:38:25;;;;;;;9.63;2.90;;;;;;;;;;5115268;28;20202;-83
2023/03/26 10:40:59;;;;;;;5.13;1.97;;;;;;;;;;5114777;28;20193;-82
2023/03/26 10:43:35;;;;;;;6.23;2.90;;;;;;;;;;5114740;28;20281;-82
2023/03/26 10:46:21;;;;;;;4.17;3.07;;;;;;;;;;5115088;28;20285;-82
2023/03/26 10:49:03;;;;;;;5.43;1.83;;;;;;;;;;5115000;28;20196;-82
2023/03/26 10:51:43;;;;;;;9.23;2.33;;;;;;;;;;5114290;28;20213;-82
2023/03/26 10:54:14;;;;;;;13.27;2.57;;;;;;;;;;5115189;28;20229;-83
2023/03/26 10:56:45;;;;;;;14.83;2.97;;;;;;;;;;5114879;28;20198;-82
2023/03/26 10:59:15;;;;;;;5.50;2.07;;;;;;;;;;5113425;28;20197;-82
2023/03/26 11:01:47;;;;;;;5.03;2.37;;;;;;;;;;5114638;28;20226;-82
2023/03/26 11:04:21;;;;;;;2.87;1.77;;;;;;;;;;5114392;28;20214;-82
2023/03/26 11:06:54;;;;;;;7.77;2.67;;;;;;;;;;5114539;28;20221;-83
2023/03/26 11:09:28;;;;;;;7.53;2.87;;;;;;;;;;5114304;28;20235;-82
2023/03/26 11:12:02;;;;;;;3.23;2.50;;;;;;;;;;5114469;28;20202;-82
2023/03/26 11:14:54;;;;;;;15.40;2.43;;;;;;;;;;5113899;28;20210;-82
2023/03/26 11:17:31;;;;;;;4.60;2.03;;;;;;;;;;5114150;28;20224;-82
2023/03/26 11:20:11;;;;;;;7.00;2.50;;;;;;;;;;5114133;28;20244;-81
2023/03/26 11:22:45;;;;;;;6.70;1.67;;;;;;;;;;5114356;28;20218;-82
2023/03/26 11:25:24;;;;;;;7.07;2.50;;;;;;;;;;5114059;28;20306;-81
2023/03/26 11:27:57;;;;;;;5.70;2.50;;;;;;;;;;5113783;28;20243;-81
2023/03/26 11:30:30;;;;;;;4.77;2.20;;;;;;;;;;5114246;28;20209;-81
2023/03/26 11:33:02;;;;;;;6.50;1.80;;;;;;;;;;5114547;28;20195;-81
2023/03/26 11:35:32;;;;;;;9.77;2.60;;;;;;;;;;5113641;28;20210;-82
2023/03/26 11:38:13;;;;;;;6.27;3.17;;;;;;;;;;5113741;28;20190;-82
2023/03/26 11:40:45;;;;;;;2.50;2.00;;;;;;;;;;5113713;28;20199;-81
2023/03/26 11:43:16;;;;;;;17.33;3.07;;;;;;;;;;5113528;28;20215;-83
2023/03/26 11:45:45;;;;;;;3.63;1.67;;;;;;;;;;5113852;28;20213;-82
2023/03/26 11:48:18;;;;;;;5.60;2.57;;;;;;;;;;5113840;28;20297;-82
2023/03/26 11:50:48;;;;;;;9.33;3.13;;;;;;;;;;5114006;28;20230;-82
2023/03/26 11:53:18;;;;;;;7.70;2.30;;;;;;;;;;5113668;27;20269;-82
2023/03/26 11:55:48;;;;;;;5.07;2.27;;;;;;;;;;5113296;28;20217;-84
2023/03/26 11:58:24;;;;;;;4.17;1.67;;;;;;;;;;5113612;28;20223;-83
2023/03/26 12:00:54;;;;;;;3.67;2.00;;;;;;;;;;5113591;28;20234;-84
2023/03/26 12:03:24;;;;;;;1.37;1.27;;;;;;;;;;5113338;28;20218;-82
2023/03/26 12:05:58;;;;;;;3.10;1.80;;;;;;;;;;5113248;28;20221;-83
2023/03/26 12:08:31;;;;;;;1.97;1.33;;;;;;;;;;5113526;28;20270;-82
2023/03/26 12:11:02;;;;;;;11.07;2.40;;;;;;;;;;5113020;27;20234;-83
2023/03/26 12:13:34;;;;;;;4.53;2.10;;;;;;;;;;5113575;28;20260;-86
2023/03/26 12:16:07;;;;;;;5.23;2.17;;;;;;;;;;5114158;28;20228;-85
2023/03/26 12:18:38;;;;;;;1.50;1.40;;;;;;;;;;5113034;28;20201;-83
2023/03/26 12:21:09;;;;;;;3.80;1.67;;;;;;;;;;5113138;28;20199;-85
2023/03/26 12:23:39;;;;;;;4.87;1.97;;;;;;;;;;5113652;28;20223;-84
2023/03/26 12:26:26;;;;;;;4.60;2.13;;;;;;;;;;5113310;28;20248;-84
2023/03/26 12:28:54;;;;;;;3.60;1.60;;;;;;;;;;5103635;28;20318;-84
2023/03/26 12:31:25;;;;;;;3.07;1.90;;;;;;;;;;5113208;28;20203;-83
2023/03/26 12:34:07;;;;;;;5.70;1.60;;;;;;;;;;5112960;28;20191;-84
2023/03/26 12:36:35;;;;;;;4.63;1.93;;;;;;;;;;5113056;28;20215;-83
2023/03/26 12:39:20;;;;;;;3.03;1.50;;;;;;;;;;5113393;28;20198;-84
2023/03/26 12:42:26;;;;;;;4.80;1.97;;;;;;;;;;5113105;28;20205;-84
2023/03/26 12:45:15;;;;;;;6.77;3.10;;;;;;;;;;5112869;28;20218;-83
2023/03/26 12:47:43;;;;;;;4.93;2.20;;;;;;;;;;5112607;28;20238;-84
2023/03/26 12:50:34;;;;;;;3.13;1.33;;;;;;;;;;5112912;28;20236;-84
2023/03/26 12:53:09;;;;;;;2.20;1.23;;;;;;;;;;5112885;28;20229;-85
2023/03/26 12:55:41;;;;;;;5.97;1.70;;;;;;;;;;5112851;28;20205;-83
2023/03/26 12:58:23;;;;;;;2.17;1.20;;;;;;;;;;5112823;28;20197;-82
2023/03/26 13:00:55;;;;;;;5.87;1.53;;;;;;;;;;5112135;28;20253;-83
2023/03/26 13:03:36;;;;;;;4.60;1.50;;;;;;;;;;5112902;28;20227;-83
2023/03/26 13:06:20;;;;;;;1.67;1.57;;;;;;;;;;5112328;28;20221;-83
2023/03/26 13:08:59;;;;;;;2.27;1.70;;;;;;;;;;5112405;28;20247;-81
2023/03/26 13:11:33;;;;;;;2.90;1.50;;;;;;;;;;5112919;28;20205;-81
2023/03/26 13:14:13;;;;;;;4.80;1.70;;;;;;;;;;5112735;28;20242;-80
2023/03/26 13:16:46;;;;;;;5.93;1.70;;;;;;;;;;5112558;28;20297;-81
2023/03/26 13:19:16;;;;;;;1.60;1.50;;;;;;;;;;5112682;28;20208;-81
2023/03/26 13:21:53;;;;;;;4.20;1.57;;;;;;;;;;5112653;28;20222;-81
2023/03/26 13:24:27;;;;;;;9.23;2.20;;;;;;;;;;5116275;28;20272;-81
2023/03/26 13:27:02;;;;;;;2.47;1.60;;;;;;;;;;5116566;27;20230;-81
2023/03/26 13:29:35;;;;;;;4.03;1.97;;;;;;;;;;5116926;28;20202;-83
2023/03/26 13:32:06;;;;;;;5.73;1.80;;;;;;;;;;5116105;28;20253;-83
2023/03/26 13:34:38;;;;;;;2.10;1.50;;;;;;;;;;5116541;28;20204;-83
2023/03/26 13:37:13;;;;;;;4.73;1.73;;;;;;;;;;5116160;28;20224;-83
2023/03/26 13:39:48;;;;;;;1.70;1.60;;;;;;;;;;5116185;28;20330;-84
2023/03/26 13:42:22;;;;;;;6.30;2.73;;;;;;;;;;5116035;28;20253;-83
2023/03/26 13:44:58;;;;;;;4.07;1.70;;;;;;;;;;5116122;28;20314;-83
2023/03/26 13:47:35;;;;;;;4.33;1.87;;;;;;;;;;5116358;27;20211;-83
2023/03/26 13:50:08;;;;;;;6.17;2.03;;;;;;;;;;5116005;28;20210;-83
2023/03/26 13:52:41;;;;;;;4.47;1.70;;;;;;;;;;5115836;28;20198;-83
2023/03/26 13:55:19;;;;;;;2.40;1.97;;;;;;;;;;5116158;28;20190;-83
2023/03/26 13:57:53;;;;;;;2.90;1.20;;;;;;;;;;5116329;28;20208;-84
2023/03/26 14:00:25;;;;;;;10.30;4.10;;;;;;;;;;5115446;28;20238;-83
2023/03/26 14:02:56;;;;;;;5.60;2.47;;;;;;;;;;5116031;28;20293;-84
2023/03/26 14:05:26;;;;;;;3.50;2.10;;;;;;;;;;5115732;28;20228;-83
2023/03/26 14:08:01;;;;;;;3.53;1.70;;;;;;;;;;5115951;28;20203;-83
2023/03/26 14:10:33;;;;;;;5.73;2.07;;;;;;;;;;5115959;28;20247;-83
2023/03/26 14:13:03;;;;;;;2.47;1.80;;;;;;;;;;5115628;28;20199;-83
2023/03/26 14:15:35;;;;;;;3.17;1.43;;;;;;;;;;5115624;28;20213;-83
2023/03/26 14:18:07;;;;;;;9.47;2.43;;;;;;;;;;5115821;28;20302;-83
2023/03/26 14:20:59;;;;;;;2.07;1.50;;;;;;;;;;5115703;27;20197;-83
2023/03/26 14:23:44;;;;;;;1.80;1.67;;;;;;;;;;5115741;28;20198;-83
2023/03/26 14:26:19;;;;;;;4.97;1.50;;;;;;;;;;5115370;28;20226;-83
2023/03/26 14:29:15;;;;;;;3.30;1.83;;;;;;;;;;5114974;28;20240;-84
2023/03/26 14:31:46;;;;;;;2.00;1.40;;;;;;;;;;5115458;27;20252;-83
2023/03/26 14:34:32;;;;;;;4.63;2.07;;;;;;;;;;5114046;28;20254;-83
2023/03/26 14:37:15;;;;;;;4.87;2.20;;;;;;;;;;5115035;27;20213;-82
2023/03/26 14:40:04;;;;;;;1.77;1.30;;;;;;;;;;5115210;28;20219;-83
2023/03/26 14:42:36;;;;;;;3.57;3.27;;;;;;;;;;5115497;28;20564;-83
2023/03/26 14:45:17;;;;;;;2.50;1.70;;;;;;;;;;5114575;28;20242;-83
2023/03/26 14:47:48;;;;;;;1.57;1.30;;;;;;;;;;5115214;28;20202;-83
2023/03/26 14:50:35;;;;;;;4.53;1.63;;;;;;;;;;5114820;28;20271;-83
2023/03/26 14:53:06;;;;;;;1.77;1.67;;;;;;;;;;5114776;28;20194;-83
2023/03/26 14:56:00;;;;;;;3.27;2.00;;;;;;;;;;5115044;28;20199;-83
2023/03/26 14:58:46;;;;;;;4.17;1.80;;;;;;;;;;5114461;28;20199;-84
2023/03/26 15:01:25;;;;;;;5.57;1.53;;;;;;;;;;5084073;28;20292;-83
2023/03/26 15:04:12;;;;;;;5.80;2.33;;;;;;;;;;5114722;28;20294;-84
2023/03/26 15:07:03;;;;;;;3.27;1.50;;;;;;;;;;5114870;28;20228;-83
2023/03/26 15:09:54;;;;;;;1.60;1.40;;;;;;;;;;5114853;28;20287;-83
2023/03/26 15:12:34;;;;;;;2.17;1.90;;;;;;;;;;5114334;28;20205;-84
2023/03/26 15:15:17;;;;;;;5.53;2.13;;;;;;;;;;5114892;28;20232;-83
2023/03/26 15:18:11;;;;;;;3.00;1.20;;;;;;;;;;5098142;28;20232;-83
2023/03/26 15:20:50;;;;;;;1.73;1.37;;;;;;;;;;5114419;28;20231;-83